sensor_id;sensor_type;location;lat;lon;timestamp;P1;durP1;ratioP1;P2;durP2;ratioP2
13439;SDS011;6792;57.698;11.946;2024-01-30T00:00:33;26.60;;;10.57;;
13439;SDS011;6792;57.698;11.946;2024-01-30T00:03:03;27.30;;;11.03;;
13439;SDS011;6792;57.698;11.946;2024-01-30T00:05:32;27.17;;;10.57;;
13439;SDS011;6792;57.698;11.946;2024-01-30T00:08:02;28.43;;;11.80;;
13439;SDS011;6792;57.698;11.946;2024-01-30T00:10:32;25.80;;;10.60;;
13439;SDS011;6792;57.698;11.946;2024-01-30T00:13:01;25.50;;;11.83;;
13439;SDS011;6792;57.698;11.946;2024-01-30T00:15:30;27.43;;;10.27;;
13439;SDS011;6792;57.698;11.946;2024-01-30T00:17:59;25.27;;;10.70;;
13439;SDS011;6792;57.698;11.946;2024-01-30T00:20:28;26.20;;;10.53;;
13439;SDS011;6792;57.698;11.946;2024-01-30T00:22:58;27.63;;;9.93;;
13439;SDS011;6792;57.698;11.946;2024-01-30T00:25:28;27.63;;;10.63;;
13439;SDS011;6792;57.698;11.946;2024-01-30T00:27:57;22.00;;;10.23;;
13439;SDS011;6792;57.698;11.946;2024-01-30T00:30:26;24.40;;;9.87;;
13439;SDS011;6792;57.698;11.946;2024-01-30T00:32:55;22.53;;;10.13;;
13439;SDS011;6792;57.698;11.946;2024-01-30T00:35:24;26.03;;;10.10;;
13439;SDS011;6792;57.698;11.946;2024-01-30T00:37:53;19.73;;;9.87;;
13439;SDS011;6792;57.698;11.946;2024-01-30T00:40:23;23.57;;;9.80;;
13439;SDS011;6792;57.698;11.946;2024-01-30T00:42:52;22.27;;;9.57;;
13439;SDS011;6792;57.698;11.946;2024-01-30T00:45:22;26.23;;;10.70;;
13439;SDS011;6792;57.698;11.946;2024-01-30T00:47:51;20.53;;;9.43;;
13439;SDS011;6792;57.698;11.946;2024-01-30T00:50:20;26.90;;;11.00;;
13439;SDS011;6792;57.698;11.946;2024-01-30T00:52:49;24.30;;;9.27;;
13439;SDS011;6792;57.698;11.946;2024-01-30T00:55:18;21.80;;;9.83;;
13439;SDS011;6792;57.698;11.946;2024-01-30T00:57:48;24.50;;;10.47;;
13439;SDS011;6792;57.698;11.946;2024-01-30T01:00:17;21.83;;;9.57;;
13439;SDS011;6792;57.698;11.946;2024-01-30T01:02:47;24.27;;;10.07;;
13439;SDS011;6792;57.698;11.946;2024-01-30T01:05:16;20.77;;;8.57;;
13439;SDS011;6792;57.698;11.946;2024-01-30T01:07:46;21.07;;;8.67;;
13439;SDS011;6792;57.698;11.946;2024-01-30T01:10:15;17.83;;;9.37;;
13439;SDS011;6792;57.698;11.946;2024-01-30T01:12:45;20.67;;;9.60;;
13439;SDS011;6792;57.698;11.946;2024-01-30T01:15:16;19.67;;;9.27;;
13439;SDS011;6792;57.698;11.946;2024-01-30T01:17:45;21.27;;;9.73;;
13439;SDS011;6792;57.698;11.946;2024-01-30T01:20:14;21.10;;;9.63;;
13439;SDS011;6792;57.698;11.946;2024-01-30T01:22:43;17.50;;;8.90;;
13439;SDS011;6792;57.698;11.946;2024-01-30T01:25:13;18.17;;;9.60;;
13439;SDS011;6792;57.698;11.946;2024-01-30T01:27:42;20.40;;;9.37;;
13439;SDS011;6792;57.698;11.946;2024-01-30T01:30:13;18.47;;;9.43;;
13439;SDS011;6792;57.698;11.946;2024-01-30T01:32:44;18.90;;;9.50;;
13439;SDS011;6792;57.698;11.946;2024-01-30T01:35:15;16.90;;;8.47;;
13439;SDS011;6792;57.698;11.946;2024-01-30T01:37:45;17.60;;;9.00;;
13439;SDS011;6792;57.698;11.946;2024-01-30T01:40:14;16.63;;;8.97;;
13439;SDS011;6792;57.698;11.946;2024-01-30T01:42:43;17.60;;;9.13;;
13439;SDS011;6792;57.698;11.946;2024-01-30T01:45:12;17.60;;;9.73;;
13439;SDS011;6792;57.698;11.946;2024-01-30T01:47:42;16.37;;;8.40;;
13439;SDS011;6792;57.698;11.946;2024-01-30T01:50:12;16.47;;;9.30;;
13439;SDS011;6792;57.698;11.946;2024-01-30T01:52:44;17.23;;;9.27;;
13439;SDS011;6792;57.698;11.946;2024-01-30T01:55:12;16.97;;;8.33;;
13439;SDS011;6792;57.698;11.946;2024-01-30T01:57:42;16.63;;;8.87;;
13439;SDS011;6792;57.698;11.946;2024-01-30T02:00:12;16.77;;;8.60;;
13439;SDS011;6792;57.698;11.946;2024-01-30T02:02:42;14.10;;;7.43;;
13439;SDS011;6792;57.698;11.946;2024-01-30T02:05:14;14.03;;;7.80;;
13439;SDS011;6792;57.698;11.946;2024-01-30T02:07:44;15.13;;;8.03;;
13439;SDS011;6792;57.698;11.946;2024-01-30T02:10:13;16.03;;;7.90;;
13439;SDS011;6792;57.698;11.946;2024-01-30T02:12:42;15.23;;;8.17;;
13439;SDS011;6792;57.698;11.946;2024-01-30T02:15:13;19.33;;;8.67;;
13439;SDS011;6792;57.698;11.946;2024-01-30T02:17:43;13.47;;;7.33;;
13439;SDS011;6792;57.698;11.946;2024-01-30T02:20:23;12.80;;;7.40;;
13439;SDS011;6792;57.698;11.946;2024-01-30T02:22:54;16.67;;;8.33;;
13439;SDS011;6792;57.698;11.946;2024-01-30T02:25:31;13.40;;;7.33;;
13439;SDS011;6792;57.698;11.946;2024-01-30T02:28:01;13.37;;;7.47;;
13439;SDS011;6792;57.698;11.946;2024-01-30T02:30:31;12.23;;;7.27;;
13439;SDS011;6792;57.698;11.946;2024-01-30T02:33:00;12.50;;;7.13;;
13439;SDS011;6792;57.698;11.946;2024-01-30T02:35:29;12.97;;;6.60;;
13439;SDS011;6792;57.698;11.946;2024-01-30T02:38:00;10.80;;;6.60;;
13439;SDS011;6792;57.698;11.946;2024-01-30T02:40:29;11.77;;;6.80;;
13439;SDS011;6792;57.698;11.946;2024-01-30T02:42:59;10.40;;;6.97;;
13439;SDS011;6792;57.698;11.946;2024-01-30T02:45:29;11.63;;;6.50;;
13439;SDS011;6792;57.698;11.946;2024-01-30T02:47:58;11.80;;;7.37;;
13439;SDS011;6792;57.698;11.946;2024-01-30T02:50:27;13.63;;;6.97;;
13439;SDS011;6792;57.698;11.946;2024-01-30T02:52:56;11.33;;;6.83;;
13439;SDS011;6792;57.698;11.946;2024-01-30T02:55:25;10.93;;;6.47;;
13439;SDS011;6792;57.698;11.946;2024-01-30T02:57:55;11.70;;;6.70;;
13439;SDS011;6792;57.698;11.946;2024-01-30T03:00:24;13.30;;;7.20;;
13439;SDS011;6792;57.698;11.946;2024-01-30T03:02:53;10.87;;;6.20;;
13439;SDS011;6792;57.698;11.946;2024-01-30T03:05:23;12.73;;;7.03;;
13439;SDS011;6792;57.698;11.946;2024-01-30T03:07:52;11.60;;;6.17;;
13439;SDS011;6792;57.698;11.946;2024-01-30T03:10:21;12.90;;;7.30;;
13439;SDS011;6792;57.698;11.946;2024-01-30T03:12:51;11.93;;;6.57;;
13439;SDS011;6792;57.698;11.946;2024-01-30T03:15:20;9.30;;;6.70;;
13439;SDS011;6792;57.698;11.946;2024-01-30T03:17:49;16.13;;;7.47;;
13439;SDS011;6792;57.698;11.946;2024-01-30T03:20:18;11.10;;;6.90;;
13439;SDS011;6792;57.698;11.946;2024-01-30T03:22:47;11.70;;;6.50;;
13439;SDS011;6792;57.698;11.946;2024-01-30T03:25:29;10.00;;;6.47;;
13439;SDS011;6792;57.698;11.946;2024-01-30T03:27:59;13.00;;;7.10;;
13439;SDS011;6792;57.698;11.946;2024-01-30T03:30:28;10.80;;;6.70;;
13439;SDS011;6792;57.698;11.946;2024-01-30T03:32:58;10.47;;;6.27;;
13439;SDS011;6792;57.698;11.946;2024-01-30T03:35:28;13.40;;;6.80;;
13439;SDS011;6792;57.698;11.946;2024-01-30T03:37:57;10.77;;;6.00;;
13439;SDS011;6792;57.698;11.946;2024-01-30T03:40:27;11.13;;;6.20;;
13439;SDS011;6792;57.698;11.946;2024-01-30T03:42:57;9.53;;;6.03;;
13439;SDS011;6792;57.698;11.946;2024-01-30T03:45:27;10.57;;;6.50;;
13439;SDS011;6792;57.698;11.946;2024-01-30T03:47:56;12.17;;;6.87;;
13439;SDS011;6792;57.698;11.946;2024-01-30T03:50:25;9.83;;;5.97;;
13439;SDS011;6792;57.698;11.946;2024-01-30T03:52:54;11.27;;;6.23;;
13439;SDS011;6792;57.698;11.946;2024-01-30T03:55:23;10.90;;;6.47;;
13439;SDS011;6792;57.698;11.946;2024-01-30T03:57:52;11.57;;;6.13;;
13439;SDS011;6792;57.698;11.946;2024-01-30T04:00:21;11.13;;;6.17;;
13439;SDS011;6792;57.698;11.946;2024-01-30T04:02:51;8.90;;;5.43;;
13439;SDS011;6792;57.698;11.946;2024-01-30T04:05:20;9.17;;;5.60;;
13439;SDS011;6792;57.698;11.946;2024-01-30T04:07:49;8.10;;;5.53;;
13439;SDS011;6792;57.698;11.946;2024-01-30T04:10:18;9.93;;;6.00;;
13439;SDS011;6792;57.698;11.946;2024-01-30T04:12:47;9.57;;;5.73;;
13439;SDS011;6792;57.698;11.946;2024-01-30T04:15:16;9.33;;;5.83;;
13439;SDS011;6792;57.698;11.946;2024-01-30T04:17:45;8.97;;;5.83;;
13439;SDS011;6792;57.698;11.946;2024-01-30T04:20:15;9.20;;;5.77;;
13439;SDS011;6792;57.698;11.946;2024-01-30T04:22:44;9.87;;;6.17;;
13439;SDS011;6792;57.698;11.946;2024-01-30T04:25:14;9.50;;;6.10;;
13439;SDS011;6792;57.698;11.946;2024-01-30T04:27:43;9.27;;;5.57;;
13439;SDS011;6792;57.698;11.946;2024-01-30T04:30:12;8.53;;;5.70;;
13439;SDS011;6792;57.698;11.946;2024-01-30T04:32:42;10.10;;;6.33;;
13439;SDS011;6792;57.698;11.946;2024-01-30T04:35:11;8.47;;;5.00;;
13439;SDS011;6792;57.698;11.946;2024-01-30T04:37:40;9.30;;;5.73;;
13439;SDS011;6792;57.698;11.946;2024-01-30T04:40:11;11.13;;;5.73;;
13439;SDS011;6792;57.698;11.946;2024-01-30T04:42:40;10.00;;;5.57;;
13439;SDS011;6792;57.698;11.946;2024-01-30T04:45:11;10.30;;;5.70;;
13439;SDS011;6792;57.698;11.946;2024-01-30T04:47:41;9.87;;;6.10;;
13439;SDS011;6792;57.698;11.946;2024-01-30T04:50:10;10.80;;;5.50;;
13439;SDS011;6792;57.698;11.946;2024-01-30T04:52:39;10.43;;;5.60;;
13439;SDS011;6792;57.698;11.946;2024-01-30T04:55:09;10.70;;;6.13;;
13439;SDS011;6792;57.698;11.946;2024-01-30T04:57:38;10.87;;;6.10;;
13439;SDS011;6792;57.698;11.946;2024-01-30T05:00:08;11.57;;;6.17;;
13439;SDS011;6792;57.698;11.946;2024-01-30T05:02:39;10.83;;;6.37;;
13439;SDS011;6792;57.698;11.946;2024-01-30T05:05:08;11.20;;;5.67;;
13439;SDS011;6792;57.698;11.946;2024-01-30T05:07:38;7.63;;;5.13;;
13439;SDS011;6792;57.698;11.946;2024-01-30T05:10:09;11.47;;;6.23;;
13439;SDS011;6792;57.698;11.946;2024-01-30T05:12:39;9.60;;;5.73;;
13439;SDS011;6792;57.698;11.946;2024-01-30T05:15:14;10.50;;;6.10;;
13439;SDS011;6792;57.698;11.946;2024-01-30T05:17:43;10.20;;;5.60;;
13439;SDS011;6792;57.698;11.946;2024-01-30T05:20:13;10.23;;;5.53;;
13439;SDS011;6792;57.698;11.946;2024-01-30T05:22:42;11.03;;;5.93;;
13439;SDS011;6792;57.698;11.946;2024-01-30T05:25:12;9.93;;;5.43;;
13439;SDS011;6792;57.698;11.946;2024-01-30T05:27:41;8.23;;;5.23;;
13439;SDS011;6792;57.698;11.946;2024-01-30T05:30:11;11.83;;;5.27;;
13439;SDS011;6792;57.698;11.946;2024-01-30T05:32:41;7.83;;;4.80;;
13439;SDS011;6792;57.698;11.946;2024-01-30T05:35:10;8.40;;;4.70;;
13439;SDS011;6792;57.698;11.946;2024-01-30T05:37:40;8.17;;;4.63;;
13439;SDS011;6792;57.698;11.946;2024-01-30T05:40:10;8.47;;;4.57;;
13439;SDS011;6792;57.698;11.946;2024-01-30T05:42:39;8.40;;;4.57;;
13439;SDS011;6792;57.698;11.946;2024-01-30T05:45:10;9.47;;;5.27;;
13439;SDS011;6792;57.698;11.946;2024-01-30T05:47:40;7.40;;;4.43;;
13439;SDS011;6792;57.698;11.946;2024-01-30T05:50:09;7.70;;;4.60;;
13439;SDS011;6792;57.698;11.946;2024-01-30T05:52:38;8.70;;;5.33;;
13439;SDS011;6792;57.698;11.946;2024-01-30T05:55:08;5.00;;;4.10;;
13439;SDS011;6792;57.698;11.946;2024-01-30T05:57:38;7.00;;;5.17;;
13439;SDS011;6792;57.698;11.946;2024-01-30T06:00:08;5.83;;;3.63;;
13439;SDS011;6792;57.698;11.946;2024-01-30T06:02:37;6.77;;;4.50;;
13439;SDS011;6792;57.698;11.946;2024-01-30T06:05:07;8.50;;;5.00;;
13439;SDS011;6792;57.698;11.946;2024-01-30T06:07:36;7.87;;;4.50;;
13439;SDS011;6792;57.698;11.946;2024-01-30T06:10:07;7.77;;;5.23;;
13439;SDS011;6792;57.698;11.946;2024-01-30T06:12:39;8.97;;;5.17;;
13439;SDS011;6792;57.698;11.946;2024-01-30T06:15:09;7.90;;;4.90;;
13439;SDS011;6792;57.698;11.946;2024-01-30T06:17:39;8.93;;;4.90;;
13439;SDS011;6792;57.698;11.946;2024-01-30T06:20:08;9.33;;;4.97;;
13439;SDS011;6792;57.698;11.946;2024-01-30T06:22:37;10.47;;;5.43;;
13439;SDS011;6792;57.698;11.946;2024-01-30T06:25:10;9.40;;;5.30;;
13439;SDS011;6792;57.698;11.946;2024-01-30T06:30:19;10.33;;;6.00;;
13439;SDS011;6792;57.698;11.946;2024-01-30T06:32:48;10.13;;;5.50;;
13439;SDS011;6792;57.698;11.946;2024-01-30T06:35:18;8.30;;;5.80;;
13439;SDS011;6792;57.698;11.946;2024-01-30T06:37:48;10.27;;;5.43;;
13439;SDS011;6792;57.698;11.946;2024-01-30T06:40:17;10.13;;;5.83;;
13439;SDS011;6792;57.698;11.946;2024-01-30T06:42:46;10.40;;;6.00;;
13439;SDS011;6792;57.698;11.946;2024-01-30T06:45:15;13.30;;;6.20;;
13439;SDS011;6792;57.698;11.946;2024-01-30T06:47:44;11.20;;;6.00;;
13439;SDS011;6792;57.698;11.946;2024-01-30T06:50:13;11.30;;;6.50;;
13439;SDS011;6792;57.698;11.946;2024-01-30T06:52:42;11.77;;;7.03;;
13439;SDS011;6792;57.698;11.946;2024-01-30T06:55:13;16.23;;;6.63;;
13439;SDS011;6792;57.698;11.946;2024-01-30T06:57:42;11.40;;;6.40;;
13439;SDS011;6792;57.698;11.946;2024-01-30T07:00:13;10.63;;;6.10;;
13439;SDS011;6792;57.698;11.946;2024-01-30T07:02:45;10.07;;;6.03;;
13439;SDS011;6792;57.698;11.946;2024-01-30T07:05:14;9.53;;;5.50;;
13439;SDS011;6792;57.698;11.946;2024-01-30T07:07:44;13.33;;;5.27;;
13439;SDS011;6792;57.698;11.946;2024-01-30T07:10:14;12.10;;;5.97;;
13439;SDS011;6792;57.698;11.946;2024-01-30T07:12:42;13.33;;;6.00;;
13439;SDS011;6792;57.698;11.946;2024-01-30T07:15:11;12.57;;;5.60;;
13439;SDS011;6792;57.698;11.946;2024-01-30T07:17:42;13.27;;;6.30;;
13439;SDS011;6792;57.698;11.946;2024-01-30T07:20:12;11.53;;;5.43;;
13439;SDS011;6792;57.698;11.946;2024-01-30T07:22:42;12.87;;;6.07;;
13439;SDS011;6792;57.698;11.946;2024-01-30T07:25:14;13.73;;;6.57;;
13439;SDS011;6792;57.698;11.946;2024-01-30T07:27:44;10.47;;;5.60;;
13439;SDS011;6792;57.698;11.946;2024-01-30T07:30:13;10.07;;;5.93;;
13439;SDS011;6792;57.698;11.946;2024-01-30T07:32:44;11.77;;;5.87;;
13439;SDS011;6792;57.698;11.946;2024-01-30T07:35:13;13.47;;;5.83;;
13439;SDS011;6792;57.698;11.946;2024-01-30T07:37:43;10.37;;;5.63;;
13439;SDS011;6792;57.698;11.946;2024-01-30T07:40:12;8.57;;;5.50;;
13439;SDS011;6792;57.698;11.946;2024-01-30T07:42:42;14.10;;;5.97;;
13439;SDS011;6792;57.698;11.946;2024-01-30T07:45:12;11.07;;;5.80;;
13439;SDS011;6792;57.698;11.946;2024-01-30T07:47:41;9.40;;;5.73;;
13439;SDS011;6792;57.698;11.946;2024-01-30T07:50:10;11.60;;;5.83;;
13439;SDS011;6792;57.698;11.946;2024-01-30T07:52:39;8.50;;;4.83;;
13439;SDS011;6792;57.698;11.946;2024-01-30T07:55:08;8.30;;;5.20;;
13439;SDS011;6792;57.698;11.946;2024-01-30T07:57:49;8.83;;;4.77;;
13439;SDS011;6792;57.698;11.946;2024-01-30T08:00:20;8.77;;;5.00;;
13439;SDS011;6792;57.698;11.946;2024-01-30T08:02:49;9.20;;;5.00;;
13439;SDS011;6792;57.698;11.946;2024-01-30T08:05:20;10.07;;;5.60;;
13439;SDS011;6792;57.698;11.946;2024-01-30T08:07:50;9.63;;;5.27;;
13439;SDS011;6792;57.698;11.946;2024-01-30T08:10:19;8.80;;;5.30;;
13439;SDS011;6792;57.698;11.946;2024-01-30T08:12:49;11.67;;;5.17;;
13439;SDS011;6792;57.698;11.946;2024-01-30T08:15:20;7.27;;;4.33;;
13439;SDS011;6792;57.698;11.946;2024-01-30T08:17:57;8.30;;;5.03;;
13439;SDS011;6792;57.698;11.946;2024-01-30T08:20:26;7.03;;;3.97;;
13439;SDS011;6792;57.698;11.946;2024-01-30T08:22:55;7.00;;;3.90;;
13439;SDS011;6792;57.698;11.946;2024-01-30T08:25:25;8.90;;;4.23;;
13439;SDS011;6792;57.698;11.946;2024-01-30T08:27:54;7.37;;;4.30;;
13439;SDS011;6792;57.698;11.946;2024-01-30T08:30:26;11.40;;;6.43;;
13439;SDS011;6792;57.698;11.946;2024-01-30T08:32:55;8.43;;;4.57;;
13439;SDS011;6792;57.698;11.946;2024-01-30T08:35:24;8.17;;;4.40;;
13439;SDS011;6792;57.698;11.946;2024-01-30T08:37:54;9.23;;;4.97;;
13439;SDS011;6792;57.698;11.946;2024-01-30T08:40:23;7.77;;;4.50;;
13439;SDS011;6792;57.698;11.946;2024-01-30T08:42:52;9.27;;;4.83;;
13439;SDS011;6792;57.698;11.946;2024-01-30T08:45:21;7.17;;;4.63;;
13439;SDS011;6792;57.698;11.946;2024-01-30T08:47:50;6.70;;;4.93;;
13439;SDS011;6792;57.698;11.946;2024-01-30T08:50:19;7.57;;;5.20;;
13439;SDS011;6792;57.698;11.946;2024-01-30T08:52:48;7.17;;;4.73;;
13439;SDS011;6792;57.698;11.946;2024-01-30T08:55:17;7.20;;;4.80;;
13439;SDS011;6792;57.698;11.946;2024-01-30T08:57:46;9.43;;;4.60;;
13439;SDS011;6792;57.698;11.946;2024-01-30T09:00:16;9.60;;;5.37;;
13439;SDS011;6792;57.698;11.946;2024-01-30T09:02:46;7.60;;;5.27;;
13439;SDS011;6792;57.698;11.946;2024-01-30T09:05:15;8.73;;;5.80;;
13439;SDS011;6792;57.698;11.946;2024-01-30T09:07:44;12.53;;;7.20;;
13439;SDS011;6792;57.698;11.946;2024-01-30T09:10:13;15.93;;;8.20;;
13439;SDS011;6792;57.698;11.946;2024-01-30T09:12:42;10.37;;;7.30;;
13439;SDS011;6792;57.698;11.946;2024-01-30T09:15:12;10.90;;;7.07;;
13439;SDS011;6792;57.698;11.946;2024-01-30T09:17:41;9.53;;;6.43;;
13439;SDS011;6792;57.698;11.946;2024-01-30T09:20:11;7.27;;;5.60;;
13439;SDS011;6792;57.698;11.946;2024-01-30T09:22:40;9.57;;;5.43;;
13439;SDS011;6792;57.698;11.946;2024-01-30T09:25:09;9.47;;;5.93;;
13439;SDS011;6792;57.698;11.946;2024-01-30T09:27:38;9.97;;;6.43;;
13439;SDS011;6792;57.698;11.946;2024-01-30T09:30:09;12.93;;;8.03;;
13439;SDS011;6792;57.698;11.946;2024-01-30T09:32:39;8.90;;;7.03;;
13439;SDS011;6792;57.698;11.946;2024-01-30T09:35:09;14.27;;;7.73;;
13439;SDS011;6792;57.698;11.946;2024-01-30T09:37:39;14.60;;;8.27;;
13439;SDS011;6792;57.698;11.946;2024-01-30T09:40:09;10.43;;;7.07;;
13439;SDS011;6792;57.698;11.946;2024-01-30T09:42:38;11.93;;;7.17;;
13439;SDS011;6792;57.698;11.946;2024-01-30T09:45:12;12.40;;;7.40;;
13439;SDS011;6792;57.698;11.946;2024-01-30T09:47:43;10.17;;;6.37;;
13439;SDS011;6792;57.698;11.946;2024-01-30T09:50:13;9.33;;;6.50;;
13439;SDS011;6792;57.698;11.946;2024-01-30T09:52:43;10.33;;;6.53;;
13439;SDS011;6792;57.698;11.946;2024-01-30T09:55:13;10.23;;;6.67;;
13439;SDS011;6792;57.698;11.946;2024-01-30T09:57:43;9.90;;;6.67;;
13439;SDS011;6792;57.698;11.946;2024-01-30T10:00:14;10.63;;;6.67;;
13439;SDS011;6792;57.698;11.946;2024-01-30T10:02:44;12.53;;;7.13;;
13439;SDS011;6792;57.698;11.946;2024-01-30T10:05:15;11.07;;;6.80;;
13439;SDS011;6792;57.698;11.946;2024-01-30T10:07:56;10.80;;;6.90;;
13439;SDS011;6792;57.698;11.946;2024-01-30T10:10:25;9.87;;;5.90;;
13439;SDS011;6792;57.698;11.946;2024-01-30T10:12:54;7.67;;;5.50;;
13439;SDS011;6792;57.698;11.946;2024-01-30T10:15:23;10.93;;;6.17;;
13439;SDS011;6792;57.698;11.946;2024-01-30T10:17:53;9.50;;;5.50;;
13439;SDS011;6792;57.698;11.946;2024-01-30T10:20:22;9.87;;;5.83;;
13439;SDS011;6792;57.698;11.946;2024-01-30T10:25:31;8.63;;;5.73;;
13439;SDS011;6792;57.698;11.946;2024-01-30T10:28:00;9.20;;;6.30;;
13439;SDS011;6792;57.698;11.946;2024-01-30T10:30:29;7.87;;;5.67;;
13439;SDS011;6792;57.698;11.946;2024-01-30T10:32:59;9.70;;;5.83;;
13439;SDS011;6792;57.698;11.946;2024-01-30T10:35:29;7.60;;;4.97;;
13439;SDS011;6792;57.698;11.946;2024-01-30T10:38:00;10.57;;;5.83;;
13439;SDS011;6792;57.698;11.946;2024-01-30T10:40:29;7.03;;;4.90;;
13439;SDS011;6792;57.698;11.946;2024-01-30T10:43:01;8.70;;;5.20;;
13439;SDS011;6792;57.698;11.946;2024-01-30T10:45:31;6.97;;;5.03;;
13439;SDS011;6792;57.698;11.946;2024-01-30T10:48:01;8.33;;;5.40;;
13439;SDS011;6792;57.698;11.946;2024-01-30T10:50:32;8.97;;;5.37;;
13439;SDS011;6792;57.698;11.946;2024-01-30T10:53:04;8.33;;;5.60;;
13439;SDS011;6792;57.698;11.946;2024-01-30T10:55:36;11.60;;;6.00;;
13439;SDS011;6792;57.698;11.946;2024-01-30T10:58:06;10.30;;;5.97;;
13439;SDS011;6792;57.698;11.946;2024-01-30T11:00:37;8.33;;;5.60;;
13439;SDS011;6792;57.698;11.946;2024-01-30T11:03:07;10.87;;;6.23;;
13439;SDS011;6792;57.698;11.946;2024-01-30T11:05:36;8.90;;;5.43;;
13439;SDS011;6792;57.698;11.946;2024-01-30T11:08:13;7.73;;;5.17;;
13439;SDS011;6792;57.698;11.946;2024-01-30T11:10:46;8.03;;;5.37;;
13439;SDS011;6792;57.698;11.946;2024-01-30T11:13:15;8.60;;;5.17;;
13439;SDS011;6792;57.698;11.946;2024-01-30T11:15:47;7.93;;;4.90;;
13439;SDS011;6792;57.698;11.946;2024-01-30T11:18:23;8.00;;;5.07;;
13439;SDS011;6792;57.698;11.946;2024-01-30T11:20:53;8.70;;;4.63;;
13439;SDS011;6792;57.698;11.946;2024-01-30T11:23:34;7.63;;;5.17;;
13439;SDS011;6792;57.698;11.946;2024-01-30T11:26:04;7.60;;;4.93;;
13439;SDS011;6792;57.698;11.946;2024-01-30T11:28:34;9.73;;;5.50;;
13439;SDS011;6792;57.698;11.946;2024-01-30T11:31:05;11.43;;;6.07;;
13439;SDS011;6792;57.698;11.946;2024-01-30T11:33:35;8.53;;;5.30;;
13439;SDS011;6792;57.698;11.946;2024-01-30T11:36:05;8.57;;;5.37;;
13439;SDS011;6792;57.698;11.946;2024-01-30T11:38:34;8.43;;;4.70;;
13439;SDS011;6792;57.698;11.946;2024-01-30T11:41:04;7.93;;;5.20;;
13439;SDS011;6792;57.698;11.946;2024-01-30T11:43:34;12.33;;;5.33;;
13439;SDS011;6792;57.698;11.946;2024-01-30T11:46:11;9.67;;;5.67;;
13439;SDS011;6792;57.698;11.946;2024-01-30T11:48:41;8.33;;;5.03;;
13439;SDS011;6792;57.698;11.946;2024-01-30T11:51:10;9.73;;;5.87;;
13439;SDS011;6792;57.698;11.946;2024-01-30T11:53:42;10.53;;;5.90;;
13439;SDS011;6792;57.698;11.946;2024-01-30T11:56:12;9.53;;;5.63;;
13439;SDS011;6792;57.698;11.946;2024-01-30T11:58:43;8.57;;;5.00;;
13439;SDS011;6792;57.698;11.946;2024-01-30T12:01:12;8.73;;;5.87;;
13439;SDS011;6792;57.698;11.946;2024-01-30T12:03:41;8.93;;;4.87;;
13439;SDS011;6792;57.698;11.946;2024-01-30T12:06:10;9.17;;;5.80;;
13439;SDS011;6792;57.698;11.946;2024-01-30T12:08:40;12.27;;;6.03;;
13439;SDS011;6792;57.698;11.946;2024-01-30T12:11:09;8.17;;;5.60;;
13439;SDS011;6792;57.698;11.946;2024-01-30T12:13:46;8.60;;;5.07;;
13439;SDS011;6792;57.698;11.946;2024-01-30T12:16:16;10.20;;;5.43;;
13439;SDS011;6792;57.698;11.946;2024-01-30T12:18:45;7.90;;;4.57;;
13439;SDS011;6792;57.698;11.946;2024-01-30T12:21:16;9.27;;;5.47;;
13439;SDS011;6792;57.698;11.946;2024-01-30T12:23:46;11.90;;;5.50;;
13439;SDS011;6792;57.698;11.946;2024-01-30T12:26:15;10.93;;;6.20;;
13439;SDS011;6792;57.698;11.946;2024-01-30T12:28:48;13.47;;;6.33;;
13439;SDS011;6792;57.698;11.946;2024-01-30T12:31:17;10.97;;;5.80;;
13439;SDS011;6792;57.698;11.946;2024-01-30T12:33:49;11.13;;;5.80;;
13439;SDS011;6792;57.698;11.946;2024-01-30T12:36:19;10.43;;;6.10;;
13439;SDS011;6792;57.698;11.946;2024-01-30T12:38:48;13.57;;;7.03;;
13439;SDS011;6792;57.698;11.946;2024-01-30T12:41:19;15.80;;;6.90;;
13439;SDS011;6792;57.698;11.946;2024-01-30T12:43:48;13.80;;;7.20;;
13439;SDS011;6792;57.698;11.946;2024-01-30T12:46:17;16.60;;;7.20;;
13439;SDS011;6792;57.698;11.946;2024-01-30T12:48:46;15.40;;;7.23;;
13439;SDS011;6792;57.698;11.946;2024-01-30T12:51:16;14.73;;;7.40;;
13439;SDS011;6792;57.698;11.946;2024-01-30T12:53:46;14.83;;;6.90;;
13439;SDS011;6792;57.698;11.946;2024-01-30T12:56:15;12.07;;;6.27;;
13439;SDS011;6792;57.698;11.946;2024-01-30T12:58:44;12.50;;;6.70;;
13439;SDS011;6792;57.698;11.946;2024-01-30T13:01:13;15.17;;;6.73;;
13439;SDS011;6792;57.698;11.946;2024-01-30T13:03:43;16.40;;;7.70;;
13439;SDS011;6792;57.698;11.946;2024-01-30T13:06:12;13.20;;;7.47;;
13439;SDS011;6792;57.698;11.946;2024-01-30T13:08:41;17.87;;;7.70;;
13439;SDS011;6792;57.698;11.946;2024-01-30T13:11:10;14.67;;;8.10;;
13439;SDS011;6792;57.698;11.946;2024-01-30T13:13:48;17.57;;;8.43;;
13439;SDS011;6792;57.698;11.946;2024-01-30T13:16:17;16.87;;;8.13;;
13439;SDS011;6792;57.698;11.946;2024-01-30T13:18:47;13.23;;;7.67;;
13439;SDS011;6792;57.698;11.946;2024-01-30T13:21:16;18.67;;;9.40;;
13439;SDS011;6792;57.698;11.946;2024-01-30T13:23:45;15.90;;;8.37;;
13439;SDS011;6792;57.698;11.946;2024-01-30T13:26:14;15.67;;;8.80;;
13439;SDS011;6792;57.698;11.946;2024-01-30T13:28:44;15.30;;;8.50;;
13439;SDS011;6792;57.698;11.946;2024-01-30T13:31:13;18.07;;;8.90;;
13439;SDS011;6792;57.698;11.946;2024-01-30T13:33:44;15.80;;;8.73;;
13439;SDS011;6792;57.698;11.946;2024-01-30T13:36:15;16.23;;;8.83;;
13439;SDS011;6792;57.698;11.946;2024-01-30T13:38:44;15.10;;;8.80;;
13439;SDS011;6792;57.698;11.946;2024-01-30T13:41:14;16.77;;;8.37;;
13439;SDS011;6792;57.698;11.946;2024-01-30T13:43:44;16.10;;;8.47;;
13439;SDS011;6792;57.698;11.946;2024-01-30T13:46:13;18.00;;;9.40;;
13439;SDS011;6792;57.698;11.946;2024-01-30T13:48:42;15.77;;;8.77;;
13439;SDS011;6792;57.698;11.946;2024-01-30T13:51:11;14.47;;;9.00;;
13439;SDS011;6792;57.698;11.946;2024-01-30T13:53:40;14.20;;;8.70;;
13439;SDS011;6792;57.698;11.946;2024-01-30T13:56:09;15.00;;;8.90;;
13439;SDS011;6792;57.698;11.946;2024-01-30T13:58:39;14.90;;;9.07;;
13439;SDS011;6792;57.698;11.946;2024-01-30T14:01:08;14.17;;;8.60;;
13439;SDS011;6792;57.698;11.946;2024-01-30T14:03:37;13.27;;;8.73;;
13439;SDS011;6792;57.698;11.946;2024-01-30T14:06:06;13.20;;;7.90;;
13439;SDS011;6792;57.698;11.946;2024-01-30T14:08:35;13.73;;;8.37;;
13439;SDS011;6792;57.698;11.946;2024-01-30T14:11:04;12.57;;;8.10;;
13439;SDS011;6792;57.698;11.946;2024-01-30T14:13:34;11.57;;;8.17;;
13439;SDS011;6792;57.698;11.946;2024-01-30T14:16:04;13.37;;;8.50;;
13439;SDS011;6792;57.698;11.946;2024-01-30T14:18:33;13.63;;;8.80;;
13439;SDS011;6792;57.698;11.946;2024-01-30T14:21:02;13.57;;;8.87;;
13439;SDS011;6792;57.698;11.946;2024-01-30T14:23:33;14.63;;;8.50;;
13439;SDS011;6792;57.698;11.946;2024-01-30T14:26:03;13.20;;;8.73;;
13439;SDS011;6792;57.698;11.946;2024-01-30T14:28:33;12.37;;;8.33;;
13439;SDS011;6792;57.698;11.946;2024-01-30T14:31:02;13.17;;;8.63;;
13439;SDS011;6792;57.698;11.946;2024-01-30T14:33:31;11.70;;;8.17;;
13439;SDS011;6792;57.698;11.946;2024-01-30T14:36:00;12.03;;;8.33;;
13439;SDS011;6792;57.698;11.946;2024-01-30T14:38:30;10.23;;;8.13;;
13439;SDS011;6792;57.698;11.946;2024-01-30T14:40:59;12.33;;;8.50;;
13439;SDS011;6792;57.698;11.946;2024-01-30T14:43:28;12.07;;;7.43;;
13439;SDS011;6792;57.698;11.946;2024-01-30T14:45:57;12.90;;;7.83;;
13439;SDS011;6792;57.698;11.946;2024-01-30T14:48:26;10.90;;;8.40;;
13439;SDS011;6792;57.698;11.946;2024-01-30T14:50:55;11.20;;;7.83;;
13439;SDS011;6792;57.698;11.946;2024-01-30T14:53:24;12.63;;;8.50;;
13439;SDS011;6792;57.698;11.946;2024-01-30T14:55:53;12.57;;;8.10;;
13439;SDS011;6792;57.698;11.946;2024-01-30T14:58:22;12.70;;;7.93;;